createdAt,value
2023-04-16T00:01:38.873Z,74.59
2023-04-16T00:04:42.976Z,74.57
2023-04-16T00:07:47.103Z,74.53
2023-04-16T00:10:53.346Z,74.49
2023-04-16T00:13:57.261Z,74.72
2023-04-16T00:17:01.257Z,74.54
2023-04-16T00:20:06.633Z,74.63
2023-04-16T00:23:10.869Z,74.71
2023-04-16T00:26:14.883Z,74.68
2023-04-16T00:29:19.407Z,74.67
2023-04-16T00:32:23.458Z,74.82
2023-04-16T00:35:27.585Z,74.92
2023-04-16T00:38:32.747Z,74.84
2023-04-16T00:41:38.408Z,74.89
2023-04-16T00:44:42.760Z,74.87
2023-04-16T00:47:47.072Z,75.10
2023-04-16T00:50:51.096Z,74.98
2023-04-16T00:53:55.518Z,75.02
2023-04-16T00:57:00.190Z,75.02
2023-04-16T01:00:05.056Z,75.25
2023-04-16T01:03:10.647Z,75.13
2023-04-16T01:06:16.911Z,75.31
2023-04-16T01:09:21.234Z,75.31
2023-04-16T01:12:25.565Z,75.27
2023-04-16T01:15:29.608Z,75.36
2023-04-16T01:18:34.471Z,75.20
2023-04-16T01:21:38.543Z,75.28
2023-04-16T01:24:42.528Z,75.39
2023-04-16T01:27:50.969Z,75.35
2023-04-16T01:30:54.983Z,75.36
2023-04-16T01:34:28.342Z,75.30
2023-04-16T01:37:32.516Z,75.39
2023-04-16T01:40:37.747Z,75.29
2023-04-16T01:43:42.701Z,75.22
2023-04-16T01:46:46.720Z,75.24
2023-04-16T01:49:51.321Z,75.24
2023-04-16T01:52:55.560Z,75.05
2023-04-16T01:55:59.593Z,75.31
2023-04-16T01:59:03.614Z,75.26
2023-04-16T02:02:15.331Z,75.35
2023-04-16T02:05:19.387Z,75.15
2023-04-16T02:08:24.340Z,75.36
2023-04-16T02:11:28.671Z,75.32
2023-04-16T02:14:33.881Z,75.28
2023-04-16T02:17:38.154Z,75.26
2023-04-16T02:20:47.422Z,75.39
2023-04-16T02:23:52.056Z,75.47
2023-04-16T02:27:00.204Z,75.55
2023-04-16T02:30:05.581Z,75.45
2023-04-16T02:33:12.228Z,75.55
2023-04-16T02:36:18.495Z,75.49
2023-04-16T02:39:22.626Z,75.25
2023-04-16T02:42:26.594Z,75.27
2023-04-16T02:45:32.079Z,75.54
2023-04-16T02:48:36.190Z,75.40
2023-04-16T02:51:40.160Z,75.69
2023-04-16T02:54:44.128Z,75.58
2023-04-16T02:57:48.254Z,75.59
2023-04-16T03:00:53.654Z,75.61
2023-04-16T03:03:57.937Z,75.52
2023-04-16T03:07:01.976Z,75.55
2023-04-16T03:10:07.582Z,75.55
2023-04-16T03:13:11.562Z,75.61
2023-04-16T03:16:15.642Z,75.66
2023-04-16T03:19:19.816Z,75.65
2023-04-16T03:22:23.854Z,75.53
2023-04-16T03:25:27.807Z,75.50
2023-04-16T03:28:31.781Z,75.65
2023-04-16T03:31:36.355Z,75.58
2023-04-16T03:34:40.924Z,75.49
2023-04-16T03:37:44.959Z,75.50
2023-04-16T03:40:49.060Z,75.47
2023-04-16T03:43:53.094Z,75.32
2023-04-16T03:46:57.384Z,75.48
2023-04-16T03:50:01.747Z,75.47
2023-04-16T03:53:06.365Z,75.45
2023-04-16T03:56:11.006Z,75.71
2023-04-16T03:59:15.311Z,75.44
2023-04-16T04:02:19.582Z,75.61
2023-04-16T04:05:23.782Z,75.51
2023-04-16T04:08:29.104Z,75.63
2023-04-16T04:11:33.481Z,75.60
2023-04-16T04:14:39.964Z,75.55
2023-04-16T04:17:44.457Z,75.54
2023-04-16T04:20:49.537Z,75.43
2023-04-16T04:23:56.182Z,75.50
2023-04-16T04:27:01.789Z,75.59
2023-04-16T04:30:07.774Z,75.64
2023-04-16T04:33:11.788Z,75.73
2023-04-16T04:36:16.204Z,75.67
2023-04-16T04:39:21.754Z,75.76
2023-04-16T04:42:26.491Z,75.66
2023-04-16T04:45:32.249Z,75.68
2023-04-16T04:48:36.513Z,75.60
2023-04-16T04:51:40.787Z,75.62
2023-04-16T04:54:45.013Z,75.64
2023-04-16T04:57:49.790Z,75.55
2023-04-16T05:00:53.812Z,75.55
2023-04-16T05:03:57.814Z,75.54
2023-04-16T05:07:02.620Z,75.42
2023-04-16T05:10:07.810Z,75.47
2023-04-16T05:13:11.975Z,75.28
2023-04-16T05:16:16.306Z,75.32
2023-04-16T05:19:20.621Z,75.11
2023-04-16T05:22:24.674Z,75.07
2023-04-16T05:25:28.969Z,74.99
2023-04-16T05:28:32.979Z,75.01
2023-04-16T05:31:37.199Z,74.71
2023-04-16T05:34:41.298Z,74.46
2023-04-16T05:37:45.341Z,74.38
2023-04-16T05:40:49.602Z,74.35
2023-04-16T05:43:53.479Z,74.34
2023-04-16T05:46:57.414Z,74.05
2023-04-16T05:50:01.458Z,74.03
2023-04-16T05:53:07.451Z,73.69
2023-04-16T05:56:11.469Z,73.74
2023-04-16T05:59:15.493Z,73.73
2023-04-16T06:02:20.642Z,73.51
2023-04-16T06:05:27.154Z,73.23
2023-04-16T06:08:31.218Z,72.73
2023-04-16T06:11:36.408Z,72.79
2023-04-16T06:14:40.581Z,72.45
2023-04-16T06:17:44.659Z,72.13
2023-04-16T06:20:48.639Z,71.91
2023-04-16T06:23:52.623Z,71.47
2023-04-16T06:26:57.563Z,71.26
2023-04-16T06:30:01.527Z,71.42
2023-04-16T06:33:05.632Z,71.31
2023-04-16T06:36:09.702Z,70.80
2023-04-16T06:39:13.736Z,71.00
2023-04-16T06:42:17.849Z,70.93
2023-04-16T06:45:21.866Z,70.97
2023-04-16T06:48:25.961Z,70.84
2023-04-16T06:51:30.000Z,70.57
2023-04-16T06:54:34.122Z,69.93
2023-04-16T06:57:38.024Z,69.77
2023-04-16T07:00:42.310Z,69.56
2023-04-16T07:03:46.770Z,69.40
2023-04-16T07:06:51.101Z,68.92
2023-04-16T07:09:55.067Z,69.00
2023-04-16T07:13:01.582Z,68.98
2023-04-16T07:16:05.997Z,68.40
2023-04-16T07:19:10.186Z,68.27
2023-04-16T07:22:14.358Z,67.71
2023-04-16T07:25:18.373Z,68.22
2023-04-16T07:28:22.391Z,68.44
2023-04-16T07:31:26.941Z,68.00
2023-04-16T07:34:31.142Z,67.79
2023-04-16T07:37:35.036Z,67.47
2023-04-16T07:40:39.066Z,67.57
2023-04-16T07:43:43.274Z,67.43
2023-04-16T07:46:47.796Z,67.64
2023-04-16T07:49:52.463Z,67.41
2023-04-16T07:52:56.468Z,67.32
2023-04-16T07:56:00.681Z,67.50
2023-04-16T07:59:18.318Z,67.46
2023-04-16T08:02:27.174Z,67.87
2023-04-16T08:05:31.320Z,67.55
2023-04-16T08:08:35.244Z,67.71
2023-04-16T08:11:39.196Z,67.52
2023-04-16T08:14:45.253Z,67.16
2023-04-16T08:17:49.203Z,67.34
2023-04-16T08:20:53.377Z,67.08
2023-04-16T08:23:57.475Z,66.90
2023-04-16T08:27:15.093Z,67.09
2023-04-16T08:30:22.394Z,66.98
2023-04-16T08:33:26.660Z,67.11
2023-04-16T08:36:31.378Z,67.07
2023-04-16T08:39:35.491Z,66.41
2023-04-16T08:42:58.368Z,66.26
2023-04-16T08:46:05.454Z,66.62
2023-04-16T08:49:17.961Z,66.35
2023-04-16T08:52:24.258Z,66.11
2023-04-16T08:55:38.000Z,65.79
2023-04-16T08:58:42.382Z,65.64
2023-04-16T09:01:49.452Z,65.55
2023-04-16T09:04:54.014Z,65.15
2023-04-16T09:07:58.137Z,64.88
2023-04-16T09:11:02.061Z,64.75
2023-04-16T09:14:10.571Z,64.73
2023-04-16T09:17:15.388Z,64.89
2023-04-16T09:20:20.142Z,64.38
2023-04-16T09:23:25.176Z,63.97
2023-04-16T09:26:29.502Z,63.41
2023-04-16T09:29:38.636Z,63.79
2023-04-16T09:32:42.638Z,63.54
2023-04-16T09:35:48.895Z,63.63
2023-04-16T09:38:54.966Z,63.73
2023-04-16T09:42:01.156Z,62.80
2023-04-16T09:45:06.407Z,62.65
2023-04-16T09:48:10.504Z,62.81
2023-04-16T09:51:14.419Z,62.45
2023-04-16T09:54:19.941Z,62.06
2023-04-16T09:57:24.888Z,61.48
2023-04-16T10:00:30.977Z,61.65
2023-04-16T10:03:37.875Z,61.76
2023-04-16T10:06:42.662Z,61.60
2023-04-16T10:09:48.753Z,61.01
2023-04-16T10:12:55.226Z,60.75
2023-04-16T10:16:00.600Z,60.60
2023-04-16T10:19:04.766Z,60.50
2023-04-16T10:22:09.010Z,60.19
2023-04-16T10:25:13.559Z,60.42
2023-04-16T10:28:17.608Z,60.42
2023-04-16T10:31:22.731Z,60.72
2023-04-16T10:34:29.018Z,60.56
2023-04-16T10:37:33.295Z,60.46
2023-04-16T10:40:37.406Z,60.43
2023-04-16T10:43:46.869Z,60.13
2023-04-16T10:46:50.812Z,60.22
2023-04-16T10:49:54.748Z,60.57
2023-04-16T10:53:17.835Z,60.22
2023-04-16T10:56:33.956Z,60.18
2023-04-16T10:59:39.708Z,59.90
2023-04-16T11:02:44.054Z,59.29
2023-04-16T11:05:48.457Z,59.44
2023-04-16T11:08:55.054Z,59.84
2023-04-16T11:12:21.558Z,59.68
2023-04-16T11:15:30.912Z,58.56
2023-04-16T11:18:36.270Z,58.64
2023-04-16T11:21:46.303Z,58.92
2023-04-16T11:24:56.124Z,58.23
2023-04-16T11:28:02.682Z,57.70
2023-04-16T11:31:12.124Z,58.51
2023-04-16T11:34:17.642Z,58.38
2023-04-16T11:37:32.714Z,57.37
2023-04-16T11:40:36.737Z,57.19
2023-04-16T11:43:40.733Z,56.93
2023-04-16T11:46:44.864Z,56.41
2023-04-16T11:49:48.984Z,56.12
2023-04-16T11:52:55.572Z,55.68
2023-04-16T11:55:59.597Z,55.37
2023-04-16T11:59:08.752Z,54.54
2023-04-16T12:02:13.103Z,54.97
2023-04-16T12:05:37.330Z,54.31
2023-04-16T12:08:42.742Z,54.74
2023-04-16T12:11:46.802Z,55.23
2023-04-16T12:14:52.080Z,55.07
2023-04-16T12:18:09.550Z,54.81
2023-04-16T12:21:13.585Z,54.40
2023-04-16T12:24:24.189Z,54.60
2023-04-16T12:27:45.588Z,53.89
2023-04-16T12:30:53.135Z,52.96
2023-04-16T12:34:03.585Z,52.51
2023-04-16T12:37:09.706Z,51.93
2023-04-16T12:40:13.761Z,51.92
2023-04-16T12:43:18.055Z,52.48
2023-04-16T12:46:21.889Z,52.54
2023-04-16T12:49:26.171Z,51.76
2023-04-16T12:52:30.302Z,52.33
2023-04-16T12:55:34.343Z,52.23
2023-04-16T12:58:38.333Z,52.01
2023-04-16T13:01:42.299Z,52.40
2023-04-16T13:04:46.303Z,51.40
2023-04-16T13:07:50.674Z,51.69
2023-04-16T13:10:55.371Z,52.22
2023-04-16T13:13:59.539Z,50.33
2023-04-16T13:17:04.276Z,51.21
2023-04-16T13:20:09.373Z,50.43
2023-04-16T13:23:13.533Z,50.53
2023-04-16T13:26:17.503Z,50.25
2023-04-16T13:29:21.444Z,50.74
2023-04-16T13:32:25.522Z,50.58
2023-04-16T13:35:31.039Z,50.62
2023-04-16T13:38:35.005Z,51.06
2023-04-16T13:41:39.424Z,50.80
2023-04-16T13:44:44.381Z,50.80
2023-04-16T13:47:48.507Z,51.30
2023-04-16T13:50:52.541Z,51.67
2023-04-16T13:53:56.565Z,51.37
2023-04-16T13:57:00.671Z,50.96
2023-04-16T14:00:05.779Z,49.72
2023-04-16T14:03:09.914Z,49.31
2023-04-16T14:06:15.072Z,49.09
2023-04-16T14:09:18.977Z,48.43
2023-04-16T14:12:22.983Z,48.25
2023-04-16T14:15:29.067Z,46.76
2023-04-16T14:18:33.088Z,45.78
2023-04-16T14:21:37.106Z,45.11
2023-04-16T14:24:41.029Z,44.24
2023-04-16T14:27:45.038Z,44.14
2023-04-16T14:30:48.964Z,43.61
2023-04-16T14:33:53.296Z,43.54
2023-04-16T14:36:57.189Z,42.60
2023-04-16T14:40:01.530Z,42.74
2023-04-16T14:43:05.517Z,43.20
2023-04-16T14:46:09.973Z,43.52
2023-04-16T14:49:14.689Z,43.00
2023-04-16T14:52:18.903Z,43.63
2023-04-16T14:55:23.016Z,44.25
2023-04-16T14:58:27.267Z,44.24
2023-04-16T15:01:32.308Z,44.08
2023-04-16T15:04:36.382Z,44.70
2023-04-16T15:07:40.426Z,46.03
2023-04-16T15:10:45.856Z,45.87
2023-04-16T15:13:49.819Z,45.63
2023-04-16T15:16:54.061Z,45.35
2023-04-16T15:19:58.101Z,46.08
2023-04-16T15:23:02.025Z,45.59
2023-04-16T15:26:06.249Z,45.85
2023-04-16T15:29:10.493Z,46.50
2023-04-16T15:32:14.425Z,46.96
2023-04-16T15:35:18.505Z,46.47
2023-04-16T15:38:22.517Z,47.29
2023-04-16T15:41:29.316Z,47.03
2023-04-16T15:44:34.297Z,47.33
2023-04-16T15:47:40.204Z,47.80
2023-04-16T15:50:45.827Z,48.54
2023-04-16T15:53:50.514Z,49.34
2023-04-16T15:56:54.494Z,50.59
2023-04-16T16:00:07.017Z,51.41
2023-04-16T16:03:12.176Z,52.28
2023-04-16T16:06:17.913Z,52.53
2023-04-16T16:09:26.358Z,52.91
2023-04-16T16:12:30.531Z,53.26
2023-04-16T16:15:35.208Z,53.23
2023-04-16T16:18:39.158Z,53.47
2023-04-16T16:21:43.121Z,53.72
2023-04-16T16:24:53.400Z,53.74
2023-04-16T16:27:58.833Z,54.05
2023-04-16T16:31:03.905Z,54.22
2023-04-16T16:34:07.912Z,54.28
2023-04-16T16:37:11.890Z,54.73
2023-04-16T16:40:16.323Z,54.99
2023-04-16T16:43:20.432Z,55.02
2023-04-16T16:46:24.627Z,55.62
2023-04-16T16:49:28.586Z,55.63
2023-04-16T16:52:32.584Z,56.12
2023-04-16T16:55:36.598Z,56.40
2023-04-16T16:58:40.723Z,56.46
2023-04-16T17:01:44.731Z,56.94
2023-04-16T17:04:49.084Z,57.56
2023-04-16T17:07:52.969Z,58.09
2023-04-16T17:10:56.987Z,58.39
2023-04-16T17:14:01.006Z,58.64
2023-04-16T17:17:05.023Z,58.86
2023-04-16T17:20:10.857Z,59.46
2023-04-16T17:23:14.894Z,59.43
2023-04-16T17:26:19.232Z,59.69
2023-04-16T17:29:26.229Z,59.88
2023-04-16T17:32:32.539Z,60.04
2023-04-16T17:35:37.002Z,60.33
2023-04-16T17:38:44.283Z,60.73
2023-04-16T17:41:54.301Z,61.35
2023-04-16T17:44:58.371Z,61.48
2023-04-16T17:48:02.665Z,61.88
2023-04-16T17:51:13.468Z,62.30
2023-04-16T17:54:17.375Z,62.24
2023-04-16T17:57:21.285Z,62.39
2023-04-16T18:00:25.521Z,62.40
2023-04-16T18:03:29.793Z,62.35
2023-04-16T18:06:33.780Z,62.87
2023-04-16T18:09:37.838Z,62.55
2023-04-16T18:12:41.777Z,63.18
2023-04-16T18:15:45.824Z,63.64
2023-04-16T18:18:49.912Z,64.05
2023-04-16T18:21:54.596Z,64.08
2023-04-16T18:24:58.665Z,64.79
2023-04-16T18:28:03.915Z,64.18
2023-04-16T18:31:08.110Z,64.76
2023-04-16T18:34:12.540Z,64.68
2023-04-16T18:37:17.470Z,64.91
2023-04-16T18:40:21.418Z,64.92
2023-04-16T18:43:25.717Z,65.63
2023-04-16T18:46:29.757Z,65.82
2023-04-16T18:49:33.851Z,65.68
2023-04-16T18:52:37.868Z,65.90
2023-04-16T18:55:41.985Z,66.30
2023-04-16T18:58:46.100Z,66.34
2023-04-16T19:01:50.136Z,66.67
2023-04-16T19:04:54.143Z,66.69
2023-04-16T19:07:58.132Z,66.84
2023-04-16T19:11:02.103Z,67.03
2023-04-16T19:14:07.825Z,66.80
2023-04-16T19:17:12.364Z,67.20
2023-04-16T19:20:16.484Z,67.46
2023-04-16T19:23:21.305Z,68.24
2023-04-16T19:26:25.338Z,67.93
2023-04-16T19:29:34.050Z,68.22
2023-04-16T19:32:38.297Z,68.52
2023-04-16T19:35:43.332Z,69.00
2023-04-16T19:38:47.266Z,69.02
2023-04-16T19:41:51.156Z,69.28
2023-04-16T19:44:55.147Z,69.34
2023-04-16T19:47:59.215Z,69.68
2023-04-16T19:51:04.008Z,69.92
2023-04-16T19:54:08.124Z,70.26
2023-04-16T19:57:12.134Z,70.25
2023-04-16T20:00:17.121Z,70.24
2023-04-16T20:03:21.119Z,70.26
2023-04-16T20:06:26.441Z,70.33
2023-04-16T20:09:30.633Z,70.66
2023-04-16T20:12:34.671Z,70.55
2023-04-16T20:15:38.676Z,70.64
2023-04-16T20:18:42.898Z,70.91
2023-04-16T20:21:47.033Z,71.04
2023-04-16T20:24:54.968Z,71.39
2023-04-16T20:27:58.943Z,71.52
2023-04-16T20:31:03.107Z,71.55
2023-04-16T20:34:07.111Z,71.70
2023-04-16T20:37:11.094Z,71.72
2023-04-16T20:40:16.570Z,72.03
2023-04-16T20:43:22.183Z,72.17
2023-04-16T20:46:30.218Z,71.85
2023-04-16T20:49:38.544Z,71.88
2023-04-16T20:52:42.742Z,72.10
2023-04-16T20:55:46.632Z,72.13
2023-04-16T20:58:50.674Z,72.21
2023-04-16T21:01:54.971Z,72.33
2023-04-16T21:04:58.949Z,72.22
2023-04-16T21:08:03.148Z,72.25
2023-04-16T21:11:07.054Z,72.39
2023-04-16T21:14:11.475Z,72.50
2023-04-16T21:17:15.367Z,72.46
2023-04-16T21:20:19.302Z,72.59
2023-04-16T21:23:23.307Z,72.94
2023-04-16T21:26:27.352Z,72.88
2023-04-16T21:29:31.346Z,72.66
2023-04-16T21:32:35.397Z,72.73
2023-04-16T21:35:39.362Z,72.60
2023-04-16T21:38:43.396Z,72.47
2023-04-16T21:41:47.840Z,72.42
2023-04-16T21:44:51.940Z,72.30
2023-04-16T21:47:56.003Z,72.34
2023-04-16T21:51:06.582Z,72.05
2023-04-16T21:54:10.951Z,72.09
2023-04-16T21:57:14.996Z,72.12
2023-04-16T22:00:19.460Z,71.94
2023-04-16T22:03:27.880Z,72.19
2023-04-16T22:06:34.702Z,72.16
2023-04-16T22:09:40.401Z,72.11
2023-04-16T22:12:45.684Z,71.90
2023-04-16T22:15:49.614Z,71.87
2023-04-16T22:18:55.080Z,72.16
2023-04-16T22:21:59.079Z,72.39
2023-04-16T22:25:03.584Z,72.39
2023-04-16T22:28:07.716Z,72.60
2023-04-16T22:31:11.936Z,72.68
2023-04-16T22:34:16.045Z,72.54
2023-04-16T22:37:20.067Z,72.92
2023-04-16T22:40:24.189Z,72.81
2023-04-16T22:43:28.097Z,72.93
2023-04-16T22:46:32.614Z,72.95
2023-04-16T22:49:36.498Z,72.93
2023-04-16T22:52:40.759Z,72.93
2023-04-16T22:55:45.018Z,72.87
2023-04-16T22:58:49.423Z,72.94
2023-04-16T23:01:53.457Z,72.90
2023-04-16T23:04:59.180Z,73.05
2023-04-16T23:08:03.104Z,72.91
2023-04-16T23:11:07.111Z,73.09
2023-04-16T23:14:11.072Z,73.31
2023-04-16T23:17:15.142Z,73.20
2023-04-16T23:20:19.259Z,73.40
2023-04-16T23:23:23.283Z,73.42
2023-04-16T23:26:27.188Z,73.41
2023-04-16T23:29:31.924Z,73.62
2023-04-16T23:32:36.093Z,73.54
2023-04-16T23:35:40.347Z,73.62
2023-04-16T23:38:44.379Z,73.53
2023-04-16T23:41:48.399Z,73.70
2023-04-16T23:44:52.310Z,73.94
2023-04-16T23:47:56.356Z,73.94
2023-04-16T23:51:00.747Z,73.94
2023-04-16T23:54:04.767Z,74.06
2023-04-16T23:57:08.783Z,74.06
